createdAt,value
2017-05-13T00:00:00.914Z,0
2017-05-13T00:02:24.821Z,0
2017-05-13T00:04:48.688Z,0
2017-05-13T00:07:12.561Z,0
2017-05-13T00:11:46.228Z,0
2017-05-13T00:14:10.068Z,0
2017-05-13T00:18:35.279Z,0
2017-05-13T00:20:50.647Z,0
2017-05-13T00:23:14.545Z,0
2017-05-13T00:25:38.419Z,0
2017-05-13T00:28:02.303Z,0
2017-05-13T00:30:26.169Z,0
2017-05-13T00:32:49.940Z,0
2017-05-13T00:35:13.707Z,0
2017-05-13T00:37:37.503Z,0
2017-05-13T00:44:12.406Z,0
2017-05-13T00:46:36.255Z,0
2017-05-13T00:51:01.412Z,0
2017-05-13T00:53:25.241Z,0
2017-05-13T00:55:49.017Z,0
2017-05-13T00:58:12.787Z,0
2017-05-13T01:02:29.591Z,0
2017-05-13T01:06:54.674Z,0
2017-05-13T01:09:18.524Z,0
2017-05-13T01:11:42.292Z,0
2017-05-13T01:14:06.048Z,0
2017-05-13T01:16:29.848Z,0
2017-05-13T01:21:03.509Z,0
2017-05-13T01:23:27.332Z,0
2017-05-13T01:25:51.130Z,0
2017-05-13T01:28:14.991Z,0
2017-05-13T01:30:38.696Z,0
2017-05-13T01:33:02.446Z,0
2017-05-13T01:37:27.519Z,0
2017-05-13T01:39:51.342Z,0
2017-05-13T01:42:15.119Z,0
2017-05-13T01:44:38.891Z,0
2017-05-13T01:47:02.654Z,0
2017-05-13T01:49:18.020Z,0
2017-05-13T01:51:24.970Z,0
2017-05-13T01:53:48.799Z,0
2017-05-13T01:56:12.569Z,0
2017-05-13T02:00:29.709Z,0
2017-05-13T02:04:54.974Z,0
2017-05-13T02:09:28.616Z,0
2017-05-13T02:11:43.995Z,0
2017-05-13T02:13:59.377Z,0
2017-05-13T02:16:14.648Z,0
2017-05-13T02:18:30.028Z,0
2017-05-13T02:20:45.406Z,0
2017-05-13T02:23:09.215Z,0
2017-05-13T02:25:32.977Z,0
2017-05-13T02:27:56.772Z,0
2017-05-13T02:30:20.535Z,0
2017-05-13T02:32:44.315Z,0
2017-05-13T02:35:08.092Z,0
2017-05-13T02:37:31.962Z,0
2017-05-13T02:39:55.748Z,0
2017-05-13T02:42:19.514Z,0
2017-05-13T02:44:43.290Z,0
2017-05-13T02:47:07.056Z,0
2017-05-13T02:49:30.829Z,0
2017-05-13T02:53:56.419Z,0
2017-05-13T02:56:20.197Z,0
2017-05-13T02:58:43.975Z,0
2017-05-13T03:03:09.130Z,0
2017-05-13T03:05:32.811Z,0
2017-05-13T03:10:06.432Z,0
2017-05-13T03:12:30.167Z,0
2017-05-13T03:14:53.944Z,0
2017-05-13T03:17:09.292Z,0
2017-05-13T03:19:32.986Z,0
2017-05-13T03:21:48.238Z,0
2017-05-13T03:24:11.940Z,0
2017-05-13T03:26:35.703Z,0
2017-05-13T03:28:59.481Z,0
2017-05-13T03:31:23.148Z,0
2017-05-13T03:33:46.919Z,0
2017-05-13T03:36:10.595Z,0
2017-05-13T03:38:34.379Z,0
2017-05-13T03:40:58.144Z,0
2017-05-13T03:43:04.996Z,0
2017-05-13T03:45:28.703Z,0
2017-05-13T03:47:52.468Z,0
2017-05-13T03:50:16.141Z,0
2017-05-13T03:52:39.811Z,0
2017-05-13T03:54:55.167Z,0
2017-05-13T03:59:20.361Z,0
2017-05-13T04:01:44.084Z,0
2017-05-13T04:03:59.357Z,0
2017-05-13T04:06:23.041Z,0
2017-05-13T04:08:46.719Z,5
2017-05-13T04:11:10.395Z,5
2017-05-13T04:13:34.167Z,5
2017-05-13T04:15:57.926Z,5
2017-05-13T04:18:13.293Z,5
2017-05-13T04:20:36.975Z,10
2017-05-13T04:23:00.659Z,10
2017-05-13T04:27:17.651Z,15
2017-05-13T04:29:41.359Z,15
2017-05-13T04:31:56.713Z,15
2017-05-13T04:34:20.409Z,25
2017-05-13T04:36:44.188Z,25
2017-05-13T04:39:07.951Z,30
2017-05-13T04:41:31.739Z,30
2017-05-13T04:43:55.522Z,35
2017-05-13T04:46:19.302Z,45
2017-05-13T04:52:45.610Z,55
2017-05-13T04:57:19.313Z,70
2017-05-13T04:59:43.231Z,75
2017-05-13T05:02:07.195Z,60
2017-05-13T05:04:31.186Z,50
2017-05-13T05:06:55.067Z,50
2017-05-13T05:09:18.984Z,40
2017-05-13T05:11:43.040Z,45
2017-05-13T05:14:06.992Z,50
2017-05-13T05:16:22.584Z,60
2017-05-13T05:18:46.497Z,70
2017-05-13T05:21:10.450Z,100
2017-05-13T05:23:34.423Z,150
2017-05-13T05:25:50.036Z,230
2017-05-13T05:28:14.296Z,240
2017-05-13T05:30:30.277Z,270
2017-05-13T05:32:54.966Z,295
2017-05-13T05:35:19.900Z,265
2017-05-13T05:37:45.088Z,305
2017-05-13T05:42:20.873Z,335
2017-05-13T05:44:46.645Z,400
2017-05-13T05:47:12.509Z,1310
2017-05-13T05:49:38.576Z,1415
2017-05-13T05:54:06.621Z,445
2017-05-13T05:56:32.682Z,425
2017-05-13T06:01:01.202Z,135
2017-05-13T06:03:18.347Z,110
2017-05-13T06:05:43.720Z,70
2017-05-13T06:08:08.994Z,75
2017-05-13T06:10:35.935Z,110
2017-05-13T06:15:11.122Z,125
2017-05-13T06:17:35.852Z,110
2017-05-13T06:19:43.555Z,125
2017-05-13T06:26:19.643Z,165
2017-05-13T06:28:44.173Z,150
2017-05-13T06:33:10.057Z,150
2017-05-13T06:35:34.492Z,210
2017-05-13T06:37:58.994Z,485
2017-05-13T06:40:15.139Z,645
2017-05-13T06:42:39.910Z,910
2017-05-13T06:45:04.968Z,1980
2017-05-13T06:47:30.265Z,2025
2017-05-13T06:49:55.742Z,315
2017-05-13T06:52:21.294Z,250
2017-05-13T06:54:46.839Z,240
2017-05-13T06:57:12.228Z,355
2017-05-13T06:59:20.485Z,345
2017-05-13T07:01:37.162Z,235
2017-05-13T07:03:53.760Z,220
2017-05-13T07:06:18.729Z,620
2017-05-13T07:08:43.737Z,285
2017-05-13T07:11:08.609Z,650
2017-05-13T07:13:33.528Z,420
2017-05-13T07:15:58.518Z,265
2017-05-13T07:18:23.415Z,315
2017-05-13T07:20:48.319Z,440
2017-05-13T07:25:23.544Z,370
2017-05-13T07:27:48.465Z,355
2017-05-13T07:30:13.522Z,360
2017-05-13T07:32:38.456Z,385
2017-05-13T07:35:03.552Z,405
2017-05-13T07:37:28.656Z,410
2017-05-13T07:39:53.752Z,430
2017-05-13T07:42:10.379Z,300
2017-05-13T07:44:36.493Z,280
2017-05-13T07:47:01.533Z,515
2017-05-13T07:49:26.502Z,540
2017-05-13T07:51:51.533Z,445
2017-05-13T07:54:16.567Z,305
2017-05-13T07:58:43.786Z,450
2017-05-13T08:01:00.417Z,315
2017-05-13T08:07:20.371Z,235
2017-05-13T08:11:21.430Z,270
2017-05-13T08:13:46.528Z,285
2017-05-13T08:16:11.565Z,210
2017-05-13T08:22:31.889Z,230
2017-05-13T08:24:56.806Z,390
2017-05-13T08:27:21.733Z,425
2017-05-13T08:29:38.224Z,235
2017-05-13T08:32:03.255Z,205
2017-05-13T08:34:28.271Z,335
2017-05-13T08:36:53.285Z,350
2017-05-13T08:39:18.302Z,360
2017-05-13T08:41:43.343Z,390
2017-05-13T08:44:08.457Z,385
2017-05-13T08:46:33.696Z,400
2017-05-13T08:48:58.962Z,180
2017-05-13T08:51:24.334Z,400
2017-05-13T08:55:44.149Z,165
2017-05-13T08:58:09.450Z,410
2017-05-13T09:00:34.758Z,200
2017-05-13T09:03:00.060Z,440
2017-05-13T09:05:16.886Z,410
2017-05-13T09:07:42.297Z,185
2017-05-13T09:10:07.755Z,145
2017-05-13T09:12:33.140Z,145
2017-05-13T09:14:59.928Z,310
2017-05-13T09:17:25.167Z,330
2017-05-13T09:19:50.489Z,385
2017-05-13T09:22:15.795Z,370
2017-05-13T09:24:32.647Z,370
2017-05-13T09:26:58.038Z,325
2017-05-13T09:31:25.804Z,295
2017-05-13T09:33:51.283Z,275
2017-05-13T09:36:16.816Z,260
2017-05-13T09:38:42.303Z,160
2017-05-13T09:41:07.804Z,265
2017-05-13T09:43:24.687Z,255
2017-05-13T09:45:50.110Z,245
2017-05-13T09:48:07.033Z,245
2017-05-13T09:50:32.427Z,115
2017-05-13T09:52:57.740Z,245
2017-05-13T09:55:14.546Z,145
2017-05-13T09:57:39.835Z,220
2017-05-13T10:00:05.032Z,220
2017-05-13T10:02:30.242Z,140
2017-05-13T10:04:55.443Z,195
2017-05-13T10:07:20.540Z,105
2017-05-13T10:09:45.633Z,190
2017-05-13T10:14:22.672Z,115
2017-05-13T10:16:49.709Z,165
2017-05-13T10:19:14.768Z,160
2017-05-13T10:21:31.371Z,100
2017-05-13T10:26:07.070Z,130
2017-05-13T10:28:32.019Z,115
2017-05-13T10:30:57.030Z,100
2017-05-13T10:35:24.815Z,150
2017-05-13T10:37:41.204Z,100
2017-05-13T10:40:06.098Z,155
2017-05-13T10:42:31.014Z,150
2017-05-13T10:44:55.884Z,145
2017-05-13T10:47:22.210Z,140
2017-05-13T10:49:47.113Z,125
2017-05-13T10:52:12.021Z,105
2017-05-13T10:54:36.815Z,95
2017-05-13T10:57:01.714Z,140
2017-05-13T10:59:26.518Z,135
2017-05-13T11:05:55.054Z,125
2017-05-13T11:08:19.848Z,120
2017-05-13T11:10:36.248Z,120
2017-05-13T11:13:02.030Z,115
2017-05-13T11:15:26.867Z,120
2017-05-13T11:19:53.753Z,110
2017-05-13T11:22:10.120Z,110
2017-05-13T11:24:26.434Z,110
2017-05-13T11:26:51.208Z,110
2017-05-13T11:29:16.011Z,105
2017-05-13T11:31:40.802Z,110
2017-05-13T11:34:05.599Z,115
2017-05-13T11:36:30.395Z,115
2017-05-13T11:38:46.731Z,105
2017-05-13T11:41:11.503Z,105
2017-05-13T11:43:19.342Z,105
2017-05-13T11:45:44.203Z,110
2017-05-13T11:48:09.017Z,115
2017-05-13T11:52:35.428Z,85
2017-05-13T11:57:10.847Z,80
2017-05-13T11:59:35.610Z,100
2017-05-13T12:02:00.411Z,95
2017-05-13T12:04:25.197Z,90
2017-05-13T12:06:49.924Z,75
2017-05-13T12:09:14.690Z,85
2017-05-13T12:11:39.493Z,85
2017-05-13T12:14:04.305Z,80
2017-05-13T12:16:29.117Z,80
2017-05-13T12:18:53.872Z,75
2017-05-13T12:21:18.578Z,85
2017-05-13T12:23:43.283Z,95
2017-05-13T12:26:07.960Z,100
2017-05-13T12:28:32.655Z,100
2017-05-13T12:30:57.366Z,95
2017-05-13T12:33:22.037Z,105
2017-05-13T12:35:46.744Z,105
2017-05-13T12:38:11.453Z,110
2017-05-13T12:40:36.151Z,95
2017-05-13T12:43:00.832Z,95
2017-05-13T12:45:25.537Z,115
2017-05-13T12:47:50.252Z,100
2017-05-13T12:50:06.546Z,110
2017-05-13T12:52:31.353Z,125
2017-05-13T12:54:47.676Z,135
2017-05-13T12:57:12.473Z,130
2017-05-13T12:59:37.296Z,110
2017-05-13T13:02:02.080Z,105
2017-05-13T13:04:26.970Z,95
2017-05-13T13:08:28.268Z,110
2017-05-13T13:10:53.121Z,100
2017-05-13T13:13:17.943Z,115
2017-05-13T13:17:44.819Z,115
2017-05-13T13:22:11.699Z,105
2017-05-13T13:24:36.545Z,105
2017-05-13T13:27:01.364Z,105
2017-05-13T13:29:26.132Z,105
2017-05-13T13:31:50.938Z,100
2017-05-13T13:34:15.677Z,105
2017-05-13T13:36:31.965Z,100
2017-05-13T13:38:48.254Z,100
2017-05-13T13:41:12.945Z,85
2017-05-13T13:43:37.725Z,95
2017-05-13T13:46:02.513Z,90
2017-05-13T13:48:18.836Z,90
2017-05-13T13:50:43.621Z,85
2017-05-13T13:53:08.300Z,80
2017-05-13T13:55:32.966Z,80
2017-05-13T13:57:57.693Z,80
2017-05-13T14:02:33.005Z,75
2017-05-13T14:04:57.805Z,80
2017-05-13T14:07:22.452Z,80
2017-05-13T14:09:47.147Z,80
2017-05-13T14:12:11.866Z,80
2017-05-13T14:14:36.446Z,75
2017-05-13T14:17:01.103Z,75
2017-05-13T14:19:25.708Z,75
2017-05-13T14:21:41.846Z,75
2017-05-13T14:26:07.984Z,75
2017-05-13T14:28:32.546Z,75
2017-05-13T14:30:48.762Z,75
2017-05-13T14:33:13.437Z,75
2017-05-13T14:35:37.989Z,75
2017-05-13T14:38:02.617Z,75
2017-05-13T14:40:10.344Z,75
2017-05-13T14:42:34.938Z,75
2017-05-13T14:44:59.619Z,70
2017-05-13T14:47:24.308Z,70
2017-05-13T14:49:49.006Z,70
2017-05-13T14:52:13.701Z,70
2017-05-13T14:54:38.398Z,70
2017-05-13T14:56:54.596Z,70
2017-05-13T15:01:20.712Z,70
2017-05-13T15:03:45.326Z,70
2017-05-13T15:06:09.925Z,60
2017-05-13T15:08:34.526Z,65
2017-05-13T15:10:59.108Z,65
2017-05-13T15:13:23.835Z,70
2017-05-13T15:15:48.510Z,70
2017-05-13T15:18:13.104Z,70
2017-05-13T15:20:37.805Z,75
2017-05-13T15:23:02.515Z,70
2017-05-13T15:25:27.191Z,70
2017-05-13T15:27:51.885Z,70
2017-05-13T15:30:16.482Z,70
2017-05-13T15:32:41.219Z,70
2017-05-13T15:35:05.891Z,70
2017-05-13T15:37:30.603Z,70
2017-05-13T15:39:55.281Z,70
2017-05-13T15:42:19.888Z,70
2017-05-13T15:46:46.507Z,70
2017-05-13T15:49:11.233Z,70
2017-05-13T15:51:27.427Z,65
2017-05-13T15:53:52.111Z,65
2017-05-13T15:56:16.821Z,60
2017-05-13T15:58:41.436Z,45
2017-05-13T16:01:06.110Z,45
2017-05-13T16:03:30.702Z,40
2017-05-13T16:05:55.400Z,35
2017-05-13T16:12:23.126Z,30
2017-05-13T16:14:47.775Z,30
2017-05-13T16:17:12.370Z,30
2017-05-13T16:19:36.950Z,30
2017-05-13T16:22:01.487Z,35
2017-05-13T16:24:26.030Z,35
2017-05-13T16:26:50.522Z,35
2017-05-13T16:29:15.114Z,35
2017-05-13T16:31:39.569Z,35
2017-05-13T16:34:04.093Z,35
2017-05-13T16:36:28.559Z,35
2017-05-13T16:38:53.069Z,35
2017-05-13T16:41:17.559Z,35
2017-05-13T16:43:42.062Z,35
2017-05-13T16:46:06.553Z,35
2017-05-13T16:48:32.057Z,35
2017-05-13T16:50:56.569Z,30
2017-05-13T16:53:21.036Z,30
2017-05-13T16:55:45.533Z,30
2017-05-13T16:58:10.019Z,25
2017-05-13T17:00:34.516Z,25
2017-05-13T17:02:59.004Z,20
2017-05-13T17:05:23.478Z,15
2017-05-13T17:07:47.971Z,15
2017-05-13T17:12:13.814Z,15
2017-05-13T17:14:38.195Z,15
2017-05-13T17:19:12.676Z,10
2017-05-13T17:21:37.011Z,10
2017-05-13T17:24:01.399Z,10
2017-05-13T17:26:17.218Z,10
2017-05-13T17:28:41.578Z,5
2017-05-13T17:33:15.859Z,5
2017-05-13T17:35:40.203Z,5
2017-05-13T17:38:04.472Z,5
2017-05-13T17:40:28.644Z,5
2017-05-13T17:42:52.933Z,0
2017-05-13T17:45:17.217Z,0
2017-05-13T17:47:41.508Z,0
2017-05-13T17:50:05.793Z,0
2017-05-13T17:52:21.633Z,0
2017-05-13T17:54:45.869Z,0
2017-05-13T17:57:01.660Z,0
2017-05-13T17:59:25.924Z,0
2017-05-13T18:01:50.102Z,0
2017-05-13T18:04:14.284Z,0
2017-05-13T18:06:38.462Z,0
2017-05-13T18:09:02.630Z,0
2017-05-13T18:13:28.099Z,0
2017-05-13T18:15:52.142Z,0
2017-05-13T18:18:16.215Z,0
2017-05-13T18:20:40.306Z,0
2017-05-13T18:25:05.761Z,0
2017-05-13T18:27:29.794Z,0
2017-05-13T18:31:55.158Z,0
2017-05-13T18:34:19.094Z,0
2017-05-13T18:36:34.629Z,0
2017-05-13T18:38:58.659Z,0
2017-05-13T18:41:14.218Z,0
2017-05-13T18:43:38.108Z,0
2017-05-13T18:46:02.085Z,0
2017-05-13T18:48:26.062Z,0
2017-05-13T18:50:50.035Z,0
2017-05-13T18:53:05.517Z,0
2017-05-13T18:55:29.386Z,0
2017-05-13T18:57:44.891Z,0
2017-05-13T19:00:08.757Z,0
2017-05-13T19:02:32.663Z,0
2017-05-13T19:04:56.618Z,0
2017-05-13T19:07:20.594Z,0
2017-05-13T19:09:44.565Z,0
2017-05-13T19:12:08.437Z,0
2017-05-13T19:14:23.912Z,0
2017-05-13T19:16:47.802Z,0
2017-05-13T19:19:11.686Z,0
2017-05-13T19:23:28.554Z,0
2017-05-13T19:25:52.497Z,0
2017-05-13T19:28:16.487Z,0
2017-05-13T19:30:40.443Z,0
2017-05-13T19:33:04.340Z,0
2017-05-13T19:37:04.197Z,0
2017-05-13T19:39:28.128Z,0
2017-05-13T19:41:52.103Z,0
2017-05-13T19:44:15.997Z,0
2017-05-13T19:46:39.872Z,0
2017-05-13T19:49:03.739Z,0
2017-05-13T19:51:27.637Z,0
2017-05-13T19:53:51.584Z,0
2017-05-13T19:56:15.491Z,0
2017-05-13T19:58:39.500Z,0
2017-05-13T20:01:03.421Z,0
2017-05-13T20:03:27.316Z,0
2017-05-13T20:05:51.191Z,0
2017-05-13T20:08:06.777Z,0
2017-05-13T20:10:30.661Z,0
2017-05-13T20:12:54.520Z,0
2017-05-13T20:15:18.517Z,0
2017-05-13T20:17:42.494Z,0
2017-05-13T20:19:57.981Z,0
2017-05-13T20:22:21.840Z,0
2017-05-13T20:24:45.825Z,0
2017-05-13T20:27:09.817Z,0
2017-05-13T20:29:33.790Z,0
2017-05-13T20:31:57.765Z,0
2017-05-13T20:34:21.763Z,0
2017-05-13T20:36:45.637Z,0
2017-05-13T20:39:09.619Z,0
2017-05-13T20:41:33.491Z,0
2017-05-13T20:43:57.455Z,0
2017-05-13T20:48:23.295Z,0
2017-05-13T20:50:47.294Z,0
2017-05-13T20:53:11.258Z,0
2017-05-13T20:55:35.129Z,0
2017-05-13T20:57:50.595Z,0
2017-05-13T21:00:14.471Z,0
2017-05-13T21:04:06.275Z,0
2017-05-13T21:06:30.218Z,0
2017-05-13T21:08:54.098Z,0
2017-05-13T21:11:17.966Z,0
2017-05-13T21:13:41.838Z,0
2017-05-13T21:16:05.717Z,0
2017-05-13T21:18:21.158Z,0
2017-05-13T21:20:44.962Z,0
2017-05-13T21:23:08.855Z,0
2017-05-13T21:25:24.396Z,0
2017-05-13T21:27:48.310Z,0
2017-05-13T21:30:12.176Z,0
2017-05-13T21:32:36.056Z,0
2017-05-13T21:34:59.932Z,0
2017-05-13T21:37:06.987Z,0
2017-05-13T21:41:32.245Z,0
2017-05-13T21:43:56.236Z,0
2017-05-13T21:46:20.225Z,0
2017-05-13T21:48:44.180Z,0
2017-05-13T21:51:08.063Z,0
2017-05-13T21:53:31.921Z,0
2017-05-13T21:55:47.409Z,0
2017-05-13T21:58:02.836Z,0
2017-05-13T22:00:18.262Z,0
2017-05-13T22:02:25.293Z,0
2017-05-13T22:06:50.399Z,0
2017-05-13T22:11:16.120Z,0
2017-05-13T22:13:39.979Z,0
2017-05-13T22:20:07.003Z,0
2017-05-13T22:22:30.944Z,0
2017-05-13T22:24:54.815Z,0
2017-05-13T22:27:18.698Z,0
2017-05-13T22:29:42.567Z,0
2017-05-13T22:32:06.444Z,0
2017-05-13T22:34:30.318Z,0
2017-05-13T22:36:45.780Z,0
2017-05-13T22:39:09.694Z,0
2017-05-13T22:41:33.571Z,0
2017-05-13T22:43:57.445Z,0
2017-05-13T22:46:21.317Z,0
2017-05-13T22:48:45.197Z,0
2017-05-13T22:51:09.076Z,0
2017-05-13T22:53:24.521Z,0
2017-05-13T22:55:48.425Z,0
2017-05-13T23:00:13.619Z,0
2017-05-13T23:02:37.424Z,0
2017-05-13T23:05:01.289Z,0
2017-05-13T23:07:25.171Z,0
2017-05-13T23:11:58.864Z,0
2017-05-13T23:14:14.202Z,0
2017-05-13T23:16:38.009Z,0
2017-05-13T23:21:11.496Z,0
2017-05-13T23:25:45.037Z,0
2017-05-13T23:28:08.822Z,0
2017-05-13T23:30:24.176Z,0
2017-05-13T23:32:47.965Z,0
2017-05-13T23:35:11.747Z,0
2017-05-13T23:37:35.509Z,0
2017-05-13T23:39:59.289Z,0
2017-05-13T23:42:23.078Z,0
2017-05-13T23:44:46.859Z,0
2017-05-13T23:47:10.635Z,0
2017-05-13T23:49:34.371Z,0
2017-05-13T23:51:58.171Z,0
2017-05-13T23:54:21.950Z,0
2017-05-13T23:56:45.732Z,0
2017-05-13T23:59:09.504Z,0
